sensor_id;sensor_type;location;lat;lon;timestamp;P1;durP1;ratioP1;P2;durP2;ratioP2
23242;SDS011;11790;49.578;11.214;2023-08-31T00:01:17;6.68;;;3.55;;
23242;SDS011;11790;49.578;11.214;2023-08-31T00:06:18;5.80;;;3.42;;
23242;SDS011;11790;49.578;11.214;2023-08-31T00:11:18;4.88;;;3.58;;
23242;SDS011;11790;49.578;11.214;2023-08-31T00:16:23;4.63;;;3.60;;
23242;SDS011;11790;49.578;11.214;2023-08-31T00:21:24;5.18;;;3.83;;
23242;SDS011;11790;49.578;11.214;2023-08-31T00:26:24;5.63;;;4.15;;
23242;SDS011;11790;49.578;11.214;2023-08-31T00:31:24;4.67;;;4.23;;
23242;SDS011;11790;49.578;11.214;2023-08-31T00:36:25;6.75;;;4.60;;
23242;SDS011;11790;49.578;11.214;2023-08-31T00:41:25;6.20;;;4.88;;
23242;SDS011;11790;49.578;11.214;2023-08-31T00:46:25;8.65;;;4.78;;
23242;SDS011;11790;49.578;11.214;2023-08-31T00:51:27;6.25;;;4.90;;
23242;SDS011;11790;49.578;11.214;2023-08-31T00:56:27;7.05;;;5.32;;
23242;SDS011;11790;49.578;11.214;2023-08-31T01:01:35;8.65;;;6.10;;
23242;SDS011;11790;49.578;11.214;2023-08-31T01:06:40;7.80;;;5.85;;
23242;SDS011;11790;49.578;11.214;2023-08-31T01:11:55;7.13;;;5.38;;
23242;SDS011;11790;49.578;11.214;2023-08-31T01:16:56;7.82;;;5.90;;
23242;SDS011;11790;49.578;11.214;2023-08-31T01:21:59;7.18;;;5.82;;
23242;SDS011;11790;49.578;11.214;2023-08-31T01:27:00;6.15;;;5.10;;
23242;SDS011;11790;49.578;11.214;2023-08-31T01:32:00;5.85;;;4.80;;
23242;SDS011;11790;49.578;11.214;2023-08-31T01:37:07;6.20;;;4.90;;
23242;SDS011;11790;49.578;11.214;2023-08-31T01:42:09;6.68;;;5.30;;
23242;SDS011;11790;49.578;11.214;2023-08-31T01:47:11;6.05;;;4.65;;
23242;SDS011;11790;49.578;11.214;2023-08-31T01:52:12;8.65;;;4.97;;
23242;SDS011;11790;49.578;11.214;2023-08-31T01:57:12;5.55;;;4.85;;
23242;SDS011;11790;49.578;11.214;2023-08-31T02:02:13;7.05;;;4.63;;
23242;SDS011;11790;49.578;11.214;2023-08-31T02:07:14;5.97;;;4.43;;
23242;SDS011;11790;49.578;11.214;2023-08-31T02:12:14;5.32;;;3.95;;
23242;SDS011;11790;49.578;11.214;2023-08-31T02:17:21;5.07;;;4.10;;
23242;SDS011;11790;49.578;11.214;2023-08-31T02:22:21;6.10;;;4.10;;
23242;SDS011;11790;49.578;11.214;2023-08-31T02:27:21;5.93;;;4.20;;
23242;SDS011;11790;49.578;11.214;2023-08-31T02:32:21;5.40;;;3.90;;
23242;SDS011;11790;49.578;11.214;2023-08-31T02:37:22;4.53;;;3.85;;
23242;SDS011;11790;49.578;11.214;2023-08-31T02:42:22;6.07;;;3.90;;
23242;SDS011;11790;49.578;11.214;2023-08-31T02:47:22;6.15;;;4.13;;
23242;SDS011;11790;49.578;11.214;2023-08-31T02:52:22;4.95;;;3.92;;
23242;SDS011;11790;49.578;11.214;2023-08-31T02:57:22;4.07;;;3.38;;
23242;SDS011;11790;49.578;11.214;2023-08-31T03:02:23;5.20;;;4.00;;
23242;SDS011;11790;49.578;11.214;2023-08-31T03:07:23;7.32;;;4.22;;
23242;SDS011;11790;49.578;11.214;2023-08-31T03:12:23;8.25;;;4.50;;
23242;SDS011;11790;49.578;11.214;2023-08-31T03:17:23;6.50;;;4.72;;
23242;SDS011;11790;49.578;11.214;2023-08-31T03:22:23;6.47;;;4.43;;
23242;SDS011;11790;49.578;11.214;2023-08-31T03:27:24;7.25;;;4.72;;
23242;SDS011;11790;49.578;11.214;2023-08-31T03:32:24;5.95;;;4.57;;
23242;SDS011;11790;49.578;11.214;2023-08-31T03:37:24;6.32;;;4.80;;
23242;SDS011;11790;49.578;11.214;2023-08-31T03:42:25;7.40;;;5.22;;
23242;SDS011;11790;49.578;11.214;2023-08-31T03:47:25;7.32;;;5.13;;
23242;SDS011;11790;49.578;11.214;2023-08-31T03:52:25;9.40;;;4.85;;
23242;SDS011;11790;49.578;11.214;2023-08-31T03:57:25;6.45;;;5.00;;
23242;SDS011;11790;49.578;11.214;2023-08-31T04:02:25;7.30;;;4.97;;
23242;SDS011;11790;49.578;11.214;2023-08-31T04:07:26;7.60;;;5.32;;
23242;SDS011;11790;49.578;11.214;2023-08-31T04:12:26;7.47;;;5.25;;
23242;SDS011;11790;49.578;11.214;2023-08-31T04:17:26;8.35;;;4.75;;
23242;SDS011;11790;49.578;11.214;2023-08-31T04:22:26;7.70;;;5.03;;
23242;SDS011;11790;49.578;11.214;2023-08-31T04:27:26;7.30;;;4.63;;
23242;SDS011;11790;49.578;11.214;2023-08-31T04:32:27;7.35;;;4.47;;
23242;SDS011;11790;49.578;11.214;2023-08-31T04:37:27;6.93;;;5.18;;
23242;SDS011;11790;49.578;11.214;2023-08-31T04:42:27;8.30;;;4.97;;
23242;SDS011;11790;49.578;11.214;2023-08-31T04:47:28;7.07;;;5.18;;
23242;SDS011;11790;49.578;11.214;2023-08-31T04:52:28;6.47;;;5.20;;
23242;SDS011;11790;49.578;11.214;2023-08-31T04:57:28;6.90;;;5.15;;
23242;SDS011;11790;49.578;11.214;2023-08-31T05:02:29;8.38;;;5.50;;
23242;SDS011;11790;49.578;11.214;2023-08-31T05:07:29;9.00;;;5.60;;
23242;SDS011;11790;49.578;11.214;2023-08-31T05:12:29;7.38;;;5.25;;
23242;SDS011;11790;49.578;11.214;2023-08-31T05:17:29;10.95;;;5.63;;
23242;SDS011;11790;49.578;11.214;2023-08-31T05:22:31;9.32;;;5.38;;
23242;SDS011;11790;49.578;11.214;2023-08-31T05:27:32;8.82;;;5.50;;
23242;SDS011;11790;49.578;11.214;2023-08-31T05:32:33;9.13;;;5.97;;
23242;SDS011;11790;49.578;11.214;2023-08-31T05:37:33;9.38;;;6.03;;
23242;SDS011;11790;49.578;11.214;2023-08-31T05:42:35;15.23;;;5.57;;
23242;SDS011;11790;49.578;11.214;2023-08-31T05:47:35;8.55;;;6.20;;
23242;SDS011;11790;49.578;11.214;2023-08-31T05:52:38;9.23;;;6.37;;
23242;SDS011;11790;49.578;11.214;2023-08-31T05:57:38;12.98;;;6.88;;
23242;SDS011;11790;49.578;11.214;2023-08-31T06:02:38;10.27;;;6.60;;
23242;SDS011;11790;49.578;11.214;2023-08-31T06:07:38;12.70;;;7.03;;
23242;SDS011;11790;49.578;11.214;2023-08-31T06:12:39;11.40;;;6.43;;
23242;SDS011;11790;49.578;11.214;2023-08-31T06:17:39;12.40;;;6.95;;
23242;SDS011;11790;49.578;11.214;2023-08-31T06:22:41;15.45;;;8.10;;
23242;SDS011;11790;49.578;11.214;2023-08-31T06:27:41;10.55;;;7.57;;
23242;SDS011;11790;49.578;11.214;2023-08-31T06:32:43;8.32;;;6.72;;
23242;SDS011;11790;49.578;11.214;2023-08-31T06:37:44;8.25;;;6.38;;
23242;SDS011;11790;49.578;11.214;2023-08-31T06:42:45;7.47;;;6.32;;
23242;SDS011;11790;49.578;11.214;2023-08-31T06:47:45;9.32;;;6.90;;
23242;SDS011;11790;49.578;11.214;2023-08-31T06:52:46;9.77;;;6.18;;
23242;SDS011;11790;49.578;11.214;2023-08-31T06:57:46;8.70;;;5.90;;
23242;SDS011;11790;49.578;11.214;2023-08-31T07:02:46;7.53;;;5.28;;
23242;SDS011;11790;49.578;11.214;2023-08-31T07:07:46;8.20;;;5.82;;
23242;SDS011;11790;49.578;11.214;2023-08-31T07:12:48;9.93;;;5.53;;
23242;SDS011;11790;49.578;11.214;2023-08-31T07:17:48;9.52;;;5.22;;
23242;SDS011;11790;49.578;11.214;2023-08-31T07:22:48;9.10;;;5.68;;
23242;SDS011;11790;49.578;11.214;2023-08-31T07:27:48;9.80;;;6.13;;
23242;SDS011;11790;49.578;11.214;2023-08-31T07:32:49;9.68;;;5.80;;
23242;SDS011;11790;49.578;11.214;2023-08-31T07:37:49;10.20;;;5.40;;
23242;SDS011;11790;49.578;11.214;2023-08-31T07:42:49;8.05;;;5.38;;
23242;SDS011;11790;49.578;11.214;2023-08-31T07:47:51;8.55;;;5.15;;
23242;SDS011;11790;49.578;11.214;2023-08-31T07:52:51;10.43;;;4.68;;
23242;SDS011;11790;49.578;11.214;2023-08-31T07:57:51;7.47;;;4.25;;
23242;SDS011;11790;49.578;11.214;2023-08-31T08:02:52;7.00;;;3.75;;
23242;SDS011;11790;49.578;11.214;2023-08-31T08:07:52;5.47;;;3.00;;
23242;SDS011;11790;49.578;11.214;2023-08-31T08:12:52;8.80;;;3.60;;
23242;SDS011;11790;49.578;11.214;2023-08-31T08:17:52;7.35;;;3.25;;
23242;SDS011;11790;49.578;11.214;2023-08-31T08:22:53;5.82;;;2.85;;
23242;SDS011;11790;49.578;11.214;2023-08-31T08:27:54;4.85;;;2.63;;
23242;SDS011;11790;49.578;11.214;2023-08-31T08:32:54;5.15;;;2.35;;
23242;SDS011;11790;49.578;11.214;2023-08-31T08:37:54;4.65;;;2.33;;
23242;SDS011;11790;49.578;11.214;2023-08-31T08:42:54;4.55;;;2.25;;
23242;SDS011;11790;49.578;11.214;2023-08-31T08:47:55;4.40;;;2.05;;
23242;SDS011;11790;49.578;11.214;2023-08-31T08:52:57;3.47;;;2.03;;
23242;SDS011;11790;49.578;11.214;2023-08-31T08:57:58;4.38;;;2.00;;
23242;SDS011;11790;49.578;11.214;2023-08-31T09:03:02;2.88;;;1.70;;
23242;SDS011;11790;49.578;11.214;2023-08-31T09:13:07;4.15;;;1.73;;
23242;SDS011;11790;49.578;11.214;2023-08-31T09:18:13;3.63;;;1.80;;
23242;SDS011;11790;49.578;11.214;2023-08-31T09:23:14;3.78;;;1.83;;
23242;SDS011;11790;49.578;11.214;2023-08-31T09:28:15;4.10;;;1.67;;
23242;SDS011;11790;49.578;11.214;2023-08-31T09:33:17;3.03;;;1.77;;
23242;SDS011;11790;49.578;11.214;2023-08-31T09:38:17;4.45;;;1.80;;
23242;SDS011;11790;49.578;11.214;2023-08-31T09:43:18;2.72;;;1.73;;
23242;SDS011;11790;49.578;11.214;2023-08-31T09:48:20;4.50;;;2.05;;
23242;SDS011;11790;49.578;11.214;2023-08-31T09:53:23;4.53;;;2.03;;
23242;SDS011;11790;49.578;11.214;2023-08-31T09:58:24;3.40;;;1.83;;
23242;SDS011;11790;49.578;11.214;2023-08-31T10:03:25;4.40;;;1.90;;
23242;SDS011;11790;49.578;11.214;2023-08-31T10:08:26;3.40;;;1.63;;
23242;SDS011;11790;49.578;11.214;2023-08-31T10:13:28;3.35;;;1.80;;
23242;SDS011;11790;49.578;11.214;2023-08-31T10:18:32;6.03;;;1.90;;
23242;SDS011;11790;49.578;11.214;2023-08-31T10:23:34;6.40;;;2.40;;
23242;SDS011;11790;49.578;11.214;2023-08-31T10:28:39;3.03;;;1.85;;
23242;SDS011;11790;49.578;11.214;2023-08-31T10:33:40;4.97;;;2.75;;
23242;SDS011;11790;49.578;11.214;2023-08-31T10:38:45;3.00;;;1.80;;
23242;SDS011;11790;49.578;11.214;2023-08-31T10:43:46;4.05;;;1.70;;
23242;SDS011;11790;49.578;11.214;2023-08-31T10:48:51;4.30;;;2.15;;
23242;SDS011;11790;49.578;11.214;2023-08-31T10:53:51;5.75;;;2.30;;
23242;SDS011;11790;49.578;11.214;2023-08-31T10:58:58;3.75;;;2.40;;
23242;SDS011;11790;49.578;11.214;2023-08-31T11:03:59;12.18;;;2.72;;
23242;SDS011;11790;49.578;11.214;2023-08-31T11:08:59;3.78;;;2.30;;
23242;SDS011;11790;49.578;11.214;2023-08-31T11:13:59;5.15;;;2.88;;
23242;SDS011;11790;49.578;11.214;2023-08-31T11:18:59;4.97;;;2.65;;
23242;SDS011;11790;49.578;11.214;2023-08-31T11:24:00;7.05;;;2.85;;
23242;SDS011;11790;49.578;11.214;2023-08-31T11:29:00;3.45;;;2.47;;
23242;SDS011;11790;49.578;11.214;2023-08-31T11:34:00;5.68;;;2.70;;
23242;SDS011;11790;49.578;11.214;2023-08-31T11:39:00;3.72;;;2.10;;
23242;SDS011;11790;49.578;11.214;2023-08-31T11:44:01;4.70;;;2.38;;
23242;SDS011;11790;49.578;11.214;2023-08-31T11:49:01;4.00;;;2.08;;
23242;SDS011;11790;49.578;11.214;2023-08-31T11:54:04;3.88;;;1.98;;
23242;SDS011;11790;49.578;11.214;2023-08-31T11:59:08;2.53;;;1.92;;
23242;SDS011;11790;49.578;11.214;2023-08-31T12:04:10;5.20;;;2.78;;
23242;SDS011;11790;49.578;11.214;2023-08-31T12:09:10;2.83;;;1.95;;
23242;SDS011;11790;49.578;11.214;2023-08-31T12:19:19;7.65;;;2.83;;
23242;SDS011;11790;49.578;11.214;2023-08-31T12:24:20;4.72;;;1.90;;
23242;SDS011;11790;49.578;11.214;2023-08-31T12:29:22;4.82;;;2.35;;
23242;SDS011;11790;49.578;11.214;2023-08-31T12:34:23;4.10;;;1.83;;
23242;SDS011;11790;49.578;11.214;2023-08-31T12:39:23;3.63;;;1.67;;
23242;SDS011;11790;49.578;11.214;2023-08-31T12:44:23;14.02;;;2.97;;
23242;SDS011;11790;49.578;11.214;2023-08-31T12:49:25;9.25;;;1.98;;
23242;SDS011;11790;49.578;11.214;2023-08-31T12:54:25;4.32;;;2.00;;
23242;SDS011;11790;49.578;11.214;2023-08-31T12:59:25;4.32;;;2.08;;
23242;SDS011;11790;49.578;11.214;2023-08-31T13:04:26;3.05;;;1.50;;
23242;SDS011;11790;49.578;11.214;2023-08-31T13:09:26;3.00;;;1.67;;
23242;SDS011;11790;49.578;11.214;2023-08-31T13:14:27;4.07;;;1.90;;
23242;SDS011;11790;49.578;11.214;2023-08-31T13:19:28;4.28;;;1.90;;
23242;SDS011;11790;49.578;11.214;2023-08-31T13:24:28;3.65;;;1.70;;
23242;SDS011;11790;49.578;11.214;2023-08-31T13:29:28;2.75;;;1.33;;
23242;SDS011;11790;49.578;11.214;2023-08-31T13:34:30;2.45;;;1.48;;
23242;SDS011;11790;49.578;11.214;2023-08-31T13:39:30;4.13;;;1.70;;
23242;SDS011;11790;49.578;11.214;2023-08-31T13:44:30;3.30;;;1.60;;
23242;SDS011;11790;49.578;11.214;2023-08-31T13:49:31;4.07;;;1.67;;
23242;SDS011;11790;49.578;11.214;2023-08-31T13:54:33;3.35;;;1.50;;
23242;SDS011;11790;49.578;11.214;2023-08-31T13:59:33;4.57;;;1.48;;
23242;SDS011;11790;49.578;11.214;2023-08-31T14:04:33;2.60;;;1.40;;
23242;SDS011;11790;49.578;11.214;2023-08-31T14:09:34;2.47;;;1.30;;
23242;SDS011;11790;49.578;11.214;2023-08-31T14:14:34;2.97;;;1.50;;
23242;SDS011;11790;49.578;11.214;2023-08-31T14:19:34;5.25;;;1.70;;
23242;SDS011;11790;49.578;11.214;2023-08-31T14:24:36;4.72;;;1.60;;
23242;SDS011;11790;49.578;11.214;2023-08-31T14:29:37;2.92;;;1.60;;
23242;SDS011;11790;49.578;11.214;2023-08-31T14:34:37;3.72;;;1.50;;
23242;SDS011;11790;49.578;11.214;2023-08-31T14:39:37;3.90;;;1.42;;
23242;SDS011;11790;49.578;11.214;2023-08-31T14:44:37;4.30;;;1.45;;
23242;SDS011;11790;49.578;11.214;2023-08-31T14:49:40;5.45;;;1.83;;
23242;SDS011;11790;49.578;11.214;2023-08-31T14:54:41;4.10;;;1.42;;
23242;SDS011;11790;49.578;11.214;2023-08-31T14:59:41;3.20;;;1.40;;
23242;SDS011;11790;49.578;11.214;2023-08-31T15:04:42;2.08;;;1.30;;
23242;SDS011;11790;49.578;11.214;2023-08-31T15:09:42;3.58;;;1.85;;
23242;SDS011;11790;49.578;11.214;2023-08-31T15:14:42;2.60;;;1.40;;
23242;SDS011;11790;49.578;11.214;2023-08-31T15:19:42;4.10;;;1.77;;
23242;SDS011;11790;49.578;11.214;2023-08-31T15:24:43;2.60;;;1.50;;
23242;SDS011;11790;49.578;11.214;2023-08-31T15:29:43;2.00;;;1.42;;
23242;SDS011;11790;49.578;11.214;2023-08-31T15:34:45;2.50;;;1.60;;
23242;SDS011;11790;49.578;11.214;2023-08-31T15:39:45;4.28;;;1.73;;
23242;SDS011;11790;49.578;11.214;2023-08-31T15:44:45;4.05;;;1.63;;
23242;SDS011;11790;49.578;11.214;2023-08-31T15:49:46;2.92;;;1.50;;
23242;SDS011;11790;49.578;11.214;2023-08-31T15:54:46;3.50;;;1.63;;
23242;SDS011;11790;49.578;11.214;2023-08-31T15:59:46;4.60;;;1.80;;
23242;SDS011;11790;49.578;11.214;2023-08-31T16:04:49;3.00;;;1.75;;
23242;SDS011;11790;49.578;11.214;2023-08-31T16:09:50;2.85;;;1.70;;
23242;SDS011;11790;49.578;11.214;2023-08-31T16:14:51;3.63;;;1.80;;
23242;SDS011;11790;49.578;11.214;2023-08-31T16:19:52;6.05;;;1.80;;
23242;SDS011;11790;49.578;11.214;2023-08-31T16:24:52;4.05;;;1.90;;
23242;SDS011;11790;49.578;11.214;2023-08-31T16:29:52;3.97;;;1.90;;
23242;SDS011;11790;49.578;11.214;2023-08-31T16:34:53;4.13;;;2.10;;
23242;SDS011;11790;49.578;11.214;2023-08-31T16:39:53;4.00;;;1.80;;
23242;SDS011;11790;49.578;11.214;2023-08-31T16:44:53;4.57;;;1.88;;
23242;SDS011;11790;49.578;11.214;2023-08-31T16:49:57;4.50;;;2.13;;
23242;SDS011;11790;49.578;11.214;2023-08-31T16:54:58;4.80;;;2.03;;
23242;SDS011;11790;49.578;11.214;2023-08-31T16:59:58;6.38;;;2.63;;
23242;SDS011;11790;49.578;11.214;2023-08-31T17:04:58;4.68;;;1.90;;
23242;SDS011;11790;49.578;11.214;2023-08-31T17:09:58;6.25;;;2.03;;
23242;SDS011;11790;49.578;11.214;2023-08-31T17:14:59;5.55;;;2.58;;
23242;SDS011;11790;49.578;11.214;2023-08-31T17:20:00;4.73;;;2.00;;
23242;SDS011;11790;49.578;11.214;2023-08-31T17:25:00;5.90;;;1.90;;
23242;SDS011;11790;49.578;11.214;2023-08-31T17:30:01;5.93;;;2.30;;
23242;SDS011;11790;49.578;11.214;2023-08-31T17:35:05;3.83;;;2.08;;
23242;SDS011;11790;49.578;11.214;2023-08-31T17:40:06;5.70;;;2.10;;
23242;SDS011;11790;49.578;11.214;2023-08-31T17:45:07;5.38;;;2.30;;
23242;SDS011;11790;49.578;11.214;2023-08-31T17:50:08;5.35;;;2.08;;
23242;SDS011;11790;49.578;11.214;2023-08-31T17:55:08;3.97;;;2.15;;
23242;SDS011;11790;49.578;11.214;2023-08-31T18:00:09;6.88;;;2.40;;
23242;SDS011;11790;49.578;11.214;2023-08-31T18:05:09;6.30;;;2.20;;
23242;SDS011;11790;49.578;11.214;2023-08-31T18:10:09;5.07;;;2.40;;
23242;SDS011;11790;49.578;11.214;2023-08-31T18:15:10;5.50;;;2.58;;
23242;SDS011;11790;49.578;11.214;2023-08-31T18:20:10;5.30;;;2.95;;
23242;SDS011;11790;49.578;11.214;2023-08-31T18:25:10;6.50;;;2.58;;
23242;SDS011;11790;49.578;11.214;2023-08-31T18:30:11;6.80;;;2.47;;
23242;SDS011;11790;49.578;11.214;2023-08-31T18:35:11;6.22;;;2.60;;
23242;SDS011;11790;49.578;11.214;2023-08-31T18:40:11;8.55;;;2.33;;
23242;SDS011;11790;49.578;11.214;2023-08-31T18:45:12;7.43;;;3.42;;
23242;SDS011;11790;49.578;11.214;2023-08-31T18:50:16;6.72;;;2.35;;
23242;SDS011;11790;49.578;11.214;2023-08-31T18:55:20;6.22;;;2.47;;
23242;SDS011;11790;49.578;11.214;2023-08-31T19:00:22;5.30;;;2.40;;
23242;SDS011;11790;49.578;11.214;2023-08-31T19:05:22;5.33;;;2.20;;
23242;SDS011;11790;49.578;11.214;2023-08-31T19:10:23;6.05;;;2.42;;
23242;SDS011;11790;49.578;11.214;2023-08-31T19:15:23;7.60;;;2.70;;
23242;SDS011;11790;49.578;11.214;2023-08-31T19:20:23;5.45;;;2.60;;
23242;SDS011;11790;49.578;11.214;2023-08-31T19:25:23;4.57;;;2.50;;
23242;SDS011;11790;49.578;11.214;2023-08-31T19:30:29;6.97;;;3.03;;
23242;SDS011;11790;49.578;11.214;2023-08-31T19:35:29;5.22;;;2.85;;
23242;SDS011;11790;49.578;11.214;2023-08-31T19:40:30;5.50;;;2.55;;
23242;SDS011;11790;49.578;11.214;2023-08-31T19:45:30;6.13;;;2.92;;
23242;SDS011;11790;49.578;11.214;2023-08-31T19:50:31;6.43;;;2.95;;
23242;SDS011;11790;49.578;11.214;2023-08-31T19:55:31;5.70;;;2.67;;
23242;SDS011;11790;49.578;11.214;2023-08-31T20:00:31;7.87;;;2.90;;
23242;SDS011;11790;49.578;11.214;2023-08-31T20:05:32;9.37;;;2.87;;
23242;SDS011;11790;49.578;11.214;2023-08-31T20:10:32;6.38;;;2.88;;
23242;SDS011;11790;49.578;11.214;2023-08-31T20:15:32;6.75;;;2.53;;
23242;SDS011;11790;49.578;11.214;2023-08-31T20:20:33;8.30;;;2.80;;
23242;SDS011;11790;49.578;11.214;2023-08-31T20:25:33;8.87;;;2.80;;
23242;SDS011;11790;49.578;11.214;2023-08-31T20:30:33;8.35;;;2.97;;
23242;SDS011;11790;49.578;11.214;2023-08-31T20:35:34;6.95;;;2.50;;
23242;SDS011;11790;49.578;11.214;2023-08-31T20:40:37;7.05;;;2.60;;
23242;SDS011;11790;49.578;11.214;2023-08-31T20:45:39;6.63;;;3.10;;
23242;SDS011;11790;49.578;11.214;2023-08-31T20:50:40;8.10;;;3.05;;
23242;SDS011;11790;49.578;11.214;2023-08-31T20:55:40;5.32;;;2.47;;
23242;SDS011;11790;49.578;11.214;2023-08-31T21:00:40;5.65;;;2.70;;
23242;SDS011;11790;49.578;11.214;2023-08-31T21:05:40;4.65;;;2.75;;
23242;SDS011;11790;49.578;11.214;2023-08-31T21:10:41;6.55;;;2.90;;
23242;SDS011;11790;49.578;11.214;2023-08-31T21:15:41;7.45;;;2.63;;
23242;SDS011;11790;49.578;11.214;2023-08-31T21:20:42;5.35;;;2.85;;
23242;SDS011;11790;49.578;11.214;2023-08-31T21:25:42;5.15;;;2.90;;
23242;SDS011;11790;49.578;11.214;2023-08-31T21:30:43;5.68;;;2.97;;
23242;SDS011;11790;49.578;11.214;2023-08-31T21:35:43;8.53;;;2.77;;
23242;SDS011;11790;49.578;11.214;2023-08-31T21:40:44;6.50;;;2.73;;
23242;SDS011;11790;49.578;11.214;2023-08-31T21:45:46;9.50;;;2.80;;
23242;SDS011;11790;49.578;11.214;2023-08-31T21:50:47;6.40;;;2.50;;
23242;SDS011;11790;49.578;11.214;2023-08-31T21:55:47;7.22;;;2.47;;
23242;SDS011;11790;49.578;11.214;2023-08-31T22:00:47;6.05;;;2.55;;
23242;SDS011;11790;49.578;11.214;2023-08-31T22:05:47;5.10;;;2.28;;
23242;SDS011;11790;49.578;11.214;2023-08-31T22:10:48;8.77;;;2.50;;
23242;SDS011;11790;49.578;11.214;2023-08-31T22:15:48;5.85;;;2.35;;
23242;SDS011;11790;49.578;11.214;2023-08-31T22:20:52;6.63;;;2.83;;
23242;SDS011;11790;49.578;11.214;2023-08-31T22:25:52;7.75;;;2.92;;
23242;SDS011;11790;49.578;11.214;2023-08-31T22:30:52;8.45;;;2.70;;
23242;SDS011;11790;49.578;11.214;2023-08-31T22:35:53;5.90;;;2.50;;
23242;SDS011;11790;49.578;11.214;2023-08-31T22:40:53;5.00;;;2.60;;
23242;SDS011;11790;49.578;11.214;2023-08-31T22:45:56;10.30;;;2.83;;
23242;SDS011;11790;49.578;11.214;2023-08-31T22:50:59;8.90;;;2.60;;
23242;SDS011;11790;49.578;11.214;2023-08-31T22:56:00;4.35;;;2.42;;
23242;SDS011;11790;49.578;11.214;2023-08-31T23:01:01;6.53;;;2.63;;
23242;SDS011;11790;49.578;11.214;2023-08-31T23:06:02;6.53;;;2.80;;
23242;SDS011;11790;49.578;11.214;2023-08-31T23:11:03;5.30;;;2.70;;
23242;SDS011;11790;49.578;11.214;2023-08-31T23:16:04;6.32;;;2.65;;
23242;SDS011;11790;49.578;11.214;2023-08-31T23:21:08;9.48;;;2.70;;
23242;SDS011;11790;49.578;11.214;2023-08-31T23:26:09;6.97;;;2.75;;
23242;SDS011;11790;49.578;11.214;2023-08-31T23:31:09;11.82;;;2.90;;
23242;SDS011;11790;49.578;11.214;2023-08-31T23:36:09;6.68;;;2.90;;
23242;SDS011;11790;49.578;11.214;2023-08-31T23:41:09;6.88;;;2.67;;
23242;SDS011;11790;49.578;11.214;2023-08-31T23:46:09;6.03;;;2.75;;
23242;SDS011;11790;49.578;11.214;2023-08-31T23:51:10;5.93;;;2.67;;
23242;SDS011;11790;49.578;11.214;2023-08-31T23:56:10;3.97;;;2.50;;
